Terminal Aerodrome Forecast
Issued by NWS

Home | Current Version | Previous Version | Text Only | Print | Product List | Glossary On
Versions: 1 2 3 4 5 6 7 8 9 10 11 12
000
FTUS45 KRIW 192300
TAFBPI
TAF
KBPI 192320Z 2000/2024 VRB11KT P6SM VCSH SCT080 BKN110
     FM200300 33007KT P6SM -SHRA OVC060
     FM200900 VRB05KT P6SM VCSH SCT060 BKN100
     FM201600 VRB06KT P6SM FEW060 SCT120
     FM202200 29011KT P6SM VCSH SCT040 BKN070=

USA.gov is the U.S. government's official web portal to all federal, state and local government web resources and services.